Time;durP1;ratioP1;P1;durP2;ratioP2;P2;SDS_P1;SDS_P2;PMS_P1;PMS_P2;Temp;Humidity;BMP_temperature;BMP_pressure;BME280_temperature;BME280_humidity;BME280_pressure;Samples;Min_cycle;Max_cycle;Signal;HPM_P1;HPM_P2
2022/04/14 00:02:13;;;;;;;4.30;1.42;;;;;;;15.84;60.91;100198.81;5090293;28;20657;-60
2022/04/14 00:04:40;;;;;;;3.60;1.90;;;;;;;15.84;60.88;100201.47;5090436;28;20051;-61
2022/04/14 00:07:06;;;;;;;2.05;1.80;;;;;;;15.82;60.90;100198.09;5090466;28;20044;-60
2022/04/14 00:09:35;;;;;;;3.80;2.28;;;;;;;15.80;60.85;100198.19;5090145;28;20044;-59
2022/04/14 00:12:02;;;;;;;3.42;2.13;;;;;;;15.78;60.95;100189.50;5088965;28;20109;-60
2022/04/14 00:14:29;;;;;;;3.90;2.22;;;;;;;15.76;61.29;100186.97;5090152;28;20113;-60
2022/04/14 00:16:55;;;;;;;3.35;2.10;;;;;;;15.74;61.29;100199.47;5090213;28;20059;-60
2022/04/14 00:19:22;;;;;;;4.20;2.97;;;;;;;15.74;61.40;100202.13;5090355;28;20169;-61
2022/04/14 00:21:49;;;;;;;5.13;2.60;;;;;;;15.74;61.46;100204.78;5090106;28;20048;-61
2022/04/14 00:24:15;;;;;;;2.85;2.55;;;;;;;15.74;61.40;100203.97;5090339;28;20048;-60
2022/04/14 00:26:44;;;;;;;4.80;2.92;;;;;;;15.72;61.59;100201.41;5088818;28;20101;-60
2022/04/14 00:29:11;;;;;;;5.47;3.45;;;;;;;15.70;61.75;100192.69;5089770;28;20397;-62
2022/04/14 00:31:38;;;;;;;5.57;3.05;;;;;;;15.70;61.75;100182.06;5090440;28;20056;-60
2022/04/14 00:34:05;;;;;;;7.15;4.18;;;;;;;15.69;61.85;100185.69;5088988;28;20055;-61
2022/04/14 00:36:33;;;;;;;7.80;4.78;;;;;;;15.68;61.99;100193.75;5090119;28;20056;-61
2022/04/14 00:39:00;;;;;;;7.38;4.68;;;;;;;15.67;62.19;100187.63;5090063;28;20059;-61
2022/04/14 00:41:27;;;;;;;7.10;5.05;;;;;;;15.67;62.06;100186.78;5089969;28;20105;-60
2022/04/14 00:43:54;;;;;;;8.63;5.00;;;;;;;15.66;62.27;100190.38;5088777;28;20044;-60
2022/04/14 00:46:22;;;;;;;10.77;6.85;;;;;;;15.62;62.49;100189.75;5088758;28;20051;-60
2022/04/14 00:48:49;;;;;;;10.23;6.55;;;;;;;15.60;62.52;100191.66;5088801;28;20055;-60
2022/04/14 00:51:16;;;;;;;8.90;6.53;;;;;;;15.59;62.60;100179.38;5090238;28;20111;-60
2022/04/14 00:53:42;;;;;;;10.65;6.35;;;;;;;15.58;62.60;100180.28;5092325;28;20105;-61
2022/04/14 00:56:09;;;;;;;11.65;7.38;;;;;;;15.57;62.76;100183.91;5093443;28;20558;-62
2022/04/14 00:58:36;;;;;;;12.68;7.15;;;;;;;15.56;62.90;100188.41;5093573;28;20082;-60
2022/04/14 01:01:06;;;;;;;12.25;7.97;;;;;;;15.55;63.01;100184.03;5093302;28;20059;-60
2022/04/14 01:03:35;;;;;;;9.75;7.32;;;;;;;15.53;63.03;100180.66;5092105;28;20130;-62
2022/04/14 01:06:03;;;;;;;8.65;7.07;;;;;;;15.51;63.32;100179.88;5092181;28;20136;-61
2022/04/14 01:08:34;;;;;;;9.32;7.13;;;;;;;15.47;63.16;100175.75;5092076;28;20525;-60
2022/04/14 01:11:02;;;;;;;10.65;7.38;;;;;;;15.44;63.39;100179.47;5092081;28;20105;-61
2022/04/14 01:13:28;;;;;;;10.27;6.57;;;;;;;15.42;63.24;100177.91;5091900;28;20510;-60
2022/04/14 01:15:59;;;;;;;9.85;7.00;;;;;;;15.37;64.28;100175.59;5093351;28;20146;-60
2022/04/14 01:18:27;;;;;;;9.43;7.50;;;;;;;15.36;63.70;100180.03;5093176;28;20400;-60
2022/04/14 01:20:54;;;;;;;10.07;6.95;;;;;;;15.34;63.54;100173.13;5091866;28;20892;-61
2022/04/14 01:23:51;;;;;;;10.10;6.75;;;;;;;15.27;64.92;100178.03;5091935;28;20432;-60
2022/04/14 01:26:19;;;;;;;9.18;5.95;;;;;;;15.24;64.00;100170.28;5090204;28;20094;-61
2022/04/14 01:28:45;;;;;;;8.82;6.13;;;;;;;15.19;64.05;100183.88;5091727;28;20466;-61
2022/04/14 01:31:12;;;;;;;10.55;7.25;;;;;;;15.13;64.19;100178.97;5092818;28;20048;-62
2022/04/14 01:33:38;;;;;;;11.65;7.90;;;;;;;15.07;64.30;100174.13;5092739;28;20753;-61
2022/04/14 01:36:05;;;;;;;13.02;7.68;;;;;;;15.04;64.50;100166.38;5092772;28;20105;-60
2022/04/14 01:38:32;;;;;;;11.63;8.32;;;;;;;15.00;64.75;100172.84;5092898;28;20056;-62
2022/04/14 01:40:58;;;;;;;12.02;9.20;;;;;;;14.96;65.08;100167.75;5092381;28;20052;-61
2022/04/14 01:43:25;;;;;;;16.25;10.02;;;;;;;14.94;65.33;100164.38;5092630;28;20059;-61
2022/04/14 01:45:52;;;;;;;15.02;10.30;;;;;;;14.92;65.36;100168.91;5092779;28;20048;-60
2022/04/14 01:48:18;;;;;;;11.68;8.95;;;;;;;14.92;65.42;100173.38;5092453;28;20135;-61
2022/04/14 01:50:45;;;;;;;12.75;9.60;;;;;;;14.90;65.60;100172.63;5092621;28;20051;-61
2022/04/14 01:53:11;;;;;;;14.52;10.23;;;;;;;14.88;65.97;100178.03;5092961;28;20048;-59
2022/04/14 01:55:38;;;;;;;16.08;10.38;;;;;;;14.87;65.90;100181.63;5092570;28;20040;-60
2022/04/14 01:58:05;;;;;;;13.27;9.95;;;;;;;14.84;65.84;100173.91;5092275;28;20458;-62
2022/04/14 02:00:31;;;;;;;13.95;10.50;;;;;;;14.83;66.05;100172.19;5092086;28;20059;-61
2022/04/14 02:02:58;;;;;;;15.80;10.65;;;;;;;14.80;66.20;100170.59;5091307;28;20487;-60
2022/04/14 02:05:25;;;;;;;15.55;11.07;;;;;;;14.79;66.07;100176.00;5092164;28;20052;-61
2022/04/14 02:07:52;;;;;;;16.33;10.80;;;;;;;14.79;66.26;100186.59;5092480;28;20056;-60
2022/04/14 02:10:18;;;;;;;14.20;10.52;;;;;;;14.79;66.31;100178.66;5092100;28;20052;-60
2022/04/14 02:12:45;;;;;;;14.98;10.60;;;;;;;14.79;66.39;100173.34;5092133;28;20044;-60
2022/04/14 02:15:12;;;;;;;15.32;10.60;;;;;;;14.79;66.31;100165.41;5092351;28;20518;-61
2022/04/14 02:17:39;;;;;;;13.88;10.25;;;;;;;14.80;66.18;100167.13;5091973;28;20040;-60
2022/04/14 02:20:06;;;;;;;16.40;10.48;;;;;;;14.78;66.42;100171.66;5092142;28;20044;-60
2022/04/14 02:22:40;;;;;;;17.02;12.23;;;;;;;14.73;67.94;100164.84;5091712;28;20056;-60
2022/04/14 02:25:08;;;;;;;18.55;12.20;;;;;;;14.75;66.57;100171.84;5090620;28;20091;-61
2022/04/14 02:27:35;;;;;;;19.13;12.85;;;;;;;14.73;66.56;100169.31;5090454;28;20097;-60
2022/04/14 02:30:02;;;;;;;18.55;13.60;;;;;;;14.71;66.69;100171.19;5091457;28;20069;-61
2022/04/14 02:32:29;;;;;;;17.80;13.45;;;;;;;14.70;66.64;100169.50;5090501;28;20195;-62
2022/04/14 02:34:55;;;;;;;20.60;14.65;;;;;;;14.67;66.77;100162.63;5091611;28;20048;-60
2022/04/14 02:37:22;;;;;;;19.88;13.45;;;;;;;14.65;66.76;100167.16;5091769;28;20047;-60
2022/04/14 02:39:49;;;;;;;18.52;13.30;;;;;;;14.64;67.05;100168.13;5091280;28;20484;-60
2022/04/14 02:42:15;;;;;;;19.30;13.20;;;;;;;14.63;67.00;100158.47;5091405;28;20077;-60
2022/04/14 02:44:42;;;;;;;16.77;11.93;;;;;;;14.64;66.89;100140.75;5091414;28;20048;-60
2022/04/14 02:47:08;;;;;;;18.58;12.48;;;;;;;14.64;66.94;100140.75;5091738;28;20052;-61
2022/04/14 02:49:36;;;;;;;15.93;12.27;;;;;;;14.64;67.12;100143.41;5091627;28;20446;-60
2022/04/14 02:52:03;;;;;;;19.60;13.02;;;;;;;14.64;67.31;100149.56;5091354;28;20534;-60
2022/04/14 02:54:29;;;;;;;18.67;14.02;;;;;;;14.64;67.14;100152.22;5091344;28;20113;-61
2022/04/14 02:56:56;;;;;;;18.00;14.23;;;;;;;14.65;67.05;100148.63;5091298;28;20097;-60
2022/04/14 02:59:22;;;;;;;22.05;14.30;;;;;;;14.64;67.22;100149.56;5091045;28;20092;-60
2022/04/14 03:01:49;;;;;;;22.50;15.38;;;;;;;14.65;67.23;100145.97;5091124;28;20762;-60
2022/04/14 03:04:15;;;;;;;20.38;14.43;;;;;;;14.65;67.18;100148.63;5091079;28;20052;-60
2022/04/14 03:06:42;;;;;;;15.82;12.68;;;;;;;14.65;67.13;100153.91;5089844;28;20052;-61
2022/04/14 03:09:09;;;;;;;21.23;15.05;;;;;;;14.64;67.28;100148.72;5090831;28;20048;-62
2022/04/14 03:11:35;;;;;;;19.63;15.45;;;;;;;14.64;67.18;100146.06;5091153;28;20142;-60
2022/04/14 03:14:02;;;;;;;23.95;16.77;;;;;;;14.63;67.46;100147.03;5090988;28;20125;-60
2022/04/14 03:16:28;;;;;;;23.15;15.57;;;;;;;14.61;67.37;100151.59;5091071;28;20048;-60
2022/04/14 03:18:55;;;;;;;22.65;16.83;;;;;;;14.57;67.29;100150.94;5091010;28;20055;-61
2022/04/14 03:21:21;;;;;;;21.45;16.50;;;;;;;14.55;67.65;100161.63;5090718;28;20048;-60
2022/04/14 03:23:48;;;;;;;20.60;16.33;;;;;;;14.53;67.68;100158.25;5090659;28;20066;-60
2022/04/14 03:26:14;;;;;;;23.70;16.90;;;;;;;14.50;67.89;100155.78;5090550;28;20071;-62
2022/04/14 03:28:41;;;;;;;25.98;17.02;;;;;;;14.49;67.83;100162.06;5090678;28;20454;-61
2022/04/14 03:31:08;;;;;;;23.80;16.88;;;;;;;14.48;68.27;100157.72;5090733;28;20105;-60
2022/04/14 03:33:34;;;;;;;22.30;16.55;;;;;;;14.48;67.94;100156.84;5090571;28;20508;-60
2022/04/14 03:36:01;;;;;;;26.80;16.08;;;;;;;14.48;68.17;100154.22;5090683;28;20051;-60
2022/04/14 03:38:28;;;;;;;21.73;15.07;;;;;;;14.49;68.23;100147.94;5090593;28;20055;-60
2022/04/14 03:41:05;;;;;;;20.27;14.52;;;;;;;14.52;68.19;100153.91;5090550;28;20063;-61
2022/04/14 03:43:35;;;;;;;21.98;14.73;;;;;;;14.53;68.82;100162.69;5090602;28;20059;-60
2022/04/14 03:46:03;;;;;;;21.70;16.23;;;;;;;14.56;68.22;100159.84;5090704;28;20066;-61
2022/04/14 03:48:30;;;;;;;20.98;15.80;;;;;;;14.56;68.01;100144.81;5090745;28;20134;-60
2022/04/14 03:50:56;;;;;;;27.13;16.88;;;;;;;14.58;68.05;100161.44;5090210;28;20097;-60
2022/04/14 03:53:23;;;;;;;27.17;16.48;;;;;;;14.59;68.04;100168.41;5090306;28;20097;-62
2022/04/14 03:55:51;;;;;;;27.73;18.48;;;;;;;14.59;68.02;100171.06;5089241;28;20060;-60
2022/04/14 03:58:17;;;;;;;25.58;18.65;;;;;;;14.60;68.15;100171.94;5090396;28;20193;-60
2022/04/14 04:00:44;;;;;;;23.13;16.05;;;;;;;14.59;68.06;100170.25;5090217;28;20472;-60
2022/04/14 04:03:12;;;;;;;27.70;18.02;;;;;;;14.58;68.12;100169.38;5089092;28;20500;-62
2022/04/14 04:05:40;;;;;;;28.77;17.80;;;;;;;14.59;68.00;100170.25;5090282;28;20052;-60
2022/04/14 04:08:07;;;;;;;26.60;17.58;;;;;;;14.57;68.21;100170.34;5090693;28;20056;-60
2022/04/14 04:10:34;;;;;;;28.02;17.52;;;;;;;14.57;68.21;100167.69;5089086;28;20051;-60
2022/04/14 04:13:01;;;;;;;27.60;17.98;;;;;;;14.59;68.25;100170.25;5090362;28;20381;-60
2022/04/14 04:15:28;;;;;;;27.52;18.15;;;;;;;14.58;68.26;100176.50;5090483;28;20063;-60
2022/04/14 04:17:54;;;;;;;25.35;18.02;;;;;;;14.57;68.20;100166.81;5090219;28;20044;-60
2022/04/14 04:20:21;;;;;;;32.05;20.52;;;;;;;14.55;68.48;100166.09;5089913;28;20093;-60
2022/04/14 04:22:48;;;;;;;30.00;20.52;;;;;;;14.55;68.41;100163.44;5090150;28;20055;-61
2022/04/14 04:25:14;;;;;;;27.92;18.48;;;;;;;14.53;68.61;100174.13;5090317;28;20051;-60
2022/04/14 04:27:41;;;;;;;31.25;19.90;;;;;;;14.52;68.61;100174.25;5094304;28;20492;-60
2022/04/14 04:30:08;;;;;;;33.60;21.80;;;;;;;14.49;68.76;100172.66;5094045;28;20044;-60
2022/04/14 04:32:35;;;;;;;33.55;20.60;;;;;;;14.48;68.69;100181.56;5093963;28;20054;-61
2022/04/14 04:35:06;;;;;;;30.90;21.30;;;;;;;14.46;68.89;100186.09;5093820;28;20102;-60
2022/04/14 04:37:32;;;;;;;32.22;21.77;;;;;;;14.46;68.73;100188.75;5092690;28;20545;-60
2022/04/14 04:39:59;;;;;;;36.97;23.10;;;;;;;14.46;68.92;100186.09;5093833;28;20060;-61
2022/04/14 04:42:26;;;;;;;36.30;21.25;;;;;;;14.44;68.90;100194.13;5093857;28;20056;-60
2022/04/14 04:44:52;;;;;;;31.58;21.83;;;;;;;14.44;68.94;100199.44;5093833;28;20048;-60
2022/04/14 04:47:22;;;;;;;36.28;23.25;;;;;;;14.44;69.22;100194.13;5093714;28;20051;-61
2022/04/14 04:49:48;;;;;;;35.65;22.88;;;;;;;14.44;69.14;100206.53;5092462;28;20450;-61
2022/04/14 04:52:15;;;;;;;31.65;22.83;;;;;;;14.43;69.27;100199.56;5093682;28;20052;-60
2022/04/14 04:54:42;;;;;;;37.30;24.52;;;;;;;14.41;69.22;100204.94;5093623;28;20044;-60
2022/04/14 04:57:09;;;;;;;33.47;22.80;;;;;;;14.41;69.39;100206.75;5093638;28;20389;-60
2022/04/14 04:59:36;;;;;;;34.10;23.05;;;;;;;14.38;69.41;100206.94;5093316;28;20047;-60
2022/04/14 05:02:02;;;;;;;34.03;22.30;;;;;;;14.36;69.62;100217.66;5093345;28;20392;-61
2022/04/14 05:04:29;;;;;;;40.83;24.20;;;;;;;14.34;69.71;100211.59;5093805;28;20048;-60
2022/04/14 05:06:56;;;;;;;36.75;23.45;;;;;;;14.32;69.63;100210.84;5093488;28;20437;-60
2022/04/14 05:09:23;;;;;;;36.72;24.60;;;;;;;14.31;69.61;100217.94;5093100;28;20573;-60
2022/04/14 05:11:50;;;;;;;40.85;24.17;;;;;;;14.30;69.82;100220.69;5093689;28;20267;-60
2022/04/14 05:14:17;;;;;;;32.35;22.60;;;;;;;14.28;69.84;100219.94;5093347;28;20462;-61
2022/04/14 05:16:43;;;;;;;34.45;24.05;;;;;;;14.27;69.91;100220.88;5091866;28;20048;-59
2022/04/14 05:19:10;;;;;;;33.08;22.13;;;;;;;14.27;70.04;100223.53;5091538;28;20105;-60
2022/04/14 05:21:37;;;;;;;36.45;25.15;;;;;;;14.28;70.20;100218.13;5092860;28;20473;-62
2022/04/14 05:24:05;;;;;;;43.20;26.42;;;;;;;14.30;70.06;100223.34;5092997;28;20127;-60
2022/04/14 05:26:31;;;;;;;36.55;25.55;;;;;;;14.33;69.91;100220.50;5092641;28;20059;-60
2022/04/14 05:28:58;;;;;;;37.05;26.33;;;;;;;14.35;70.16;100226.53;5093227;28;20496;-61
2022/04/14 05:31:25;;;;;;;46.10;29.95;;;;;;;14.37;70.03;100219.34;5091627;28;20048;-60
2022/04/14 05:33:52;;;;;;;46.42;30.23;;;;;;;14.38;69.90;100221.03;5091162;28;20044;-62
2022/04/14 05:36:19;;;;;;;45.28;28.85;;;;;;;14.41;69.93;100222.63;5091365;28;20048;-60
2022/04/14 05:38:46;;;;;;;45.88;28.77;;;;;;;14.42;69.85;100219.03;5090908;28;20070;-60
2022/04/14 05:41:12;;;;;;;43.70;29.65;;;;;;;14.42;69.85;100225.19;5092392;28;20074;-60
2022/04/14 05:43:39;;;;;;;42.60;29.02;;;;;;;14.44;69.96;100227.72;5092620;28;20450;-60
2022/04/14 05:46:06;;;;;;;45.92;29.33;;;;;;;14.44;69.87;100235.69;5092866;28;20052;-62
2022/04/14 05:48:33;;;;;;;42.47;27.70;;;;;;;14.45;69.61;100242.66;5091462;28;20048;-61
2022/04/14 05:50:59;;;;;;;41.83;27.55;;;;;;;14.44;69.88;100233.88;5092502;28;20189;-60
2022/04/14 05:53:26;;;;;;;42.72;28.13;;;;;;;14.44;69.85;100241.81;5091444;28;20048;-61
2022/04/14 05:55:54;;;;;;;41.70;27.58;;;;;;;14.45;69.85;100238.22;5091204;28;20143;-60
2022/04/14 05:58:20;;;;;;;44.25;27.80;;;;;;;14.45;69.84;100235.59;5092477;28;20184;-60
2022/04/14 06:00:47;;;;;;;43.50;27.05;;;;;;;14.46;69.88;100234.63;5092308;28;20457;-59
2022/04/14 06:03:14;;;;;;;43.90;27.63;;;;;;;14.46;69.72;100234.63;5092197;28;20048;-63
2022/04/14 06:05:41;;;;;;;39.45;26.52;;;;;;;14.48;69.91;100236.31;5091108;28;20488;-59
2022/04/14 06:08:08;;;;;;;44.47;28.20;;;;;;;14.50;69.92;100239.72;5092097;28;20040;-60
2022/04/14 06:10:35;;;;;;;41.10;27.00;;;;;;;14.51;69.75;100230.81;5091885;28;20093;-61
2022/04/14 06:13:03;;;;;;;45.40;27.45;;;;;;;14.53;69.91;100234.22;5092039;28;20044;-60
2022/04/14 06:15:31;;;;;;;41.92;26.83;;;;;;;14.54;69.82;100244.72;5092167;28;20152;-60
2022/04/14 06:17:58;;;;;;;38.78;26.38;;;;;;;14.55;69.77;100237.63;5092216;28;20056;-59
2022/04/14 06:20:25;;;;;;;43.35;27.40;;;;;;;14.57;69.75;100243.66;5090513;28;20386;-60
2022/04/14 06:22:52;;;;;;;39.90;26.60;;;;;;;14.58;69.80;100245.38;5091952;28;20109;-61
2022/04/14 06:25:22;;;;;;;37.78;25.05;;;;;;;14.60;69.78;100254.06;5091486;28;20484;-60
2022/04/14 06:27:50;;;;;;;42.03;25.88;;;;;;;14.63;69.89;100251.22;5092082;28;20103;-59
2022/04/14 06:30:18;;;;;;;36.88;25.08;;;;;;;14.65;69.86;100256.41;5091433;28;20063;-61
2022/04/14 06:32:56;;;;;;;39.95;26.08;;;;;;;14.64;70.35;100247.59;5090715;28;20052;-60
2022/04/14 06:35:23;;;;;;;40.53;25.27;;;;;;;14.70;69.65;100257.78;5090548;28;20102;-62
2022/04/14 06:37:49;;;;;;;42.05;25.27;;;;;;;14.71;69.79;100251.56;5091681;28;20098;-60
2022/04/14 06:40:16;;;;;;;39.78;25.42;;;;;;;14.76;69.75;100248.63;5091386;28;20105;-60
2022/04/14 06:42:59;;;;;;;36.53;24.75;;;;;;;14.80;69.91;100249.28;5092086;28;20048;-60
2022/04/14 06:45:26;;;;;;;40.38;26.05;;;;;;;14.84;69.97;100248.94;5090386;28;20479;-60
2022/04/14 06:47:53;;;;;;;43.00;28.17;;;;;;;14.88;70.03;100246.94;5091350;28;20056;-61
2022/04/14 06:50:20;;;;;;;41.92;27.65;;;;;;;14.95;69.91;100255.34;5091283;28;20097;-60
2022/04/14 06:52:46;;;;;;;45.00;27.58;;;;;;;15.00;70.15;100252.38;5091408;28;20484;-60
2022/04/14 06:55:15;;;;;;;41.58;26.80;;;;;;;15.06;69.96;100255.44;5091002;28;20488;-62
2022/04/14 06:57:42;;;;;;;42.97;27.67;;;;;;;15.14;70.01;100251.44;5091427;28;20059;-60
2022/04/14 07:00:09;;;;;;;45.08;28.13;;;;;;;15.20;69.74;100251.88;5091188;28;20040;-60
2022/04/14 07:02:45;;;;;;;45.83;28.13;;;;;;;15.23;69.92;100256.97;5089827;28;20484;-60
2022/04/14 07:05:11;;;;;;;40.53;26.95;;;;;;;15.32;69.52;100252.81;5091478;28;20098;-60
2022/04/14 07:07:38;;;;;;;47.17;27.95;;;;;;;15.36;69.32;100254.31;5091014;28;20044;-59
2022/04/14 07:10:05;;;;;;;49.85;31.65;;;;;;;15.41;69.18;100264.59;5090782;28;20549;-59
2022/04/14 07:12:31;;;;;;;46.78;28.08;;;;;;;15.45;68.98;100263.44;5091180;28;20116;-61
2022/04/14 07:15:00;;;;;;;47.25;29.17;;;;;;;15.49;68.82;100249.00;5089471;28;20550;-60
2022/04/14 07:17:27;;;;;;;44.38;27.67;;;;;;;15.54;68.75;100256.63;5090821;28;20412;-60
2022/04/14 07:19:53;;;;;;;46.92;28.70;;;;;;;15.58;68.61;100257.25;5090498;28;20527;-63
2022/04/14 07:22:20;;;;;;;47.88;29.73;;;;;;;15.60;68.50;100258.00;5090958;28;20105;-60
2022/04/14 07:24:48;;;;;;;48.25;29.40;;;;;;;15.62;68.41;100264.03;5090715;28;20047;-60
2022/04/14 07:27:21;;;;;;;50.10;32.10;;;;;;;15.62;68.48;100264.91;5090538;28;20059;-60
2022/04/14 07:29:50;;;;;;;50.38;30.65;;;;;;;15.63;68.01;100271.06;5089206;28;20496;-61
2022/04/14 07:32:16;;;;;;;48.72;31.17;;;;;;;15.60;67.77;100265.97;5090497;28;20047;-60
2022/04/14 07:34:43;;;;;;;48.10;30.38;;;;;;;15.58;67.90;100270.50;5090417;28;20052;-61
2022/04/14 07:37:10;;;;;;;52.63;31.02;;;;;;;15.53;67.78;100262.03;5089518;28;20081;-61
2022/04/14 07:39:37;;;;;;;46.60;30.50;;;;;;;15.48;67.74;100265.84;5090680;28;20113;-60
2022/04/14 07:42:09;;;;;;;56.92;34.75;;;;;;;15.45;67.62;100263.44;5090977;28;20048;-60
2022/04/14 07:44:36;;;;;;;59.40;35.85;;;;;;;15.39;67.69;100263.84;5090421;28;20052;-63
2022/04/14 07:47:03;;;;;;;55.95;34.45;;;;;;;15.35;67.66;100259.72;5090412;28;20055;-61
2022/04/14 07:49:29;;;;;;;58.63;36.13;;;;;;;15.28;67.69;100258.44;5090559;28;20055;-61
2022/04/14 07:51:56;;;;;;;57.25;34.75;;;;;;;15.21;67.59;100266.81;5090561;28;20400;-61
2022/04/14 07:54:22;;;;;;;61.28;36.75;;;;;;;15.14;67.91;100254.91;5090407;28;20048;-61
2022/04/14 07:56:49;;;;;;;62.45;37.80;;;;;;;15.08;67.93;100258.84;5090290;28;20515;-60
2022/04/14 07:59:16;;;;;;;63.85;35.20;;;;;;;15.03;68.07;100258.31;5090043;28;20488;-61
2022/04/14 08:01:42;;;;;;;62.28;37.30;;;;;;;14.99;68.29;100264.75;5093241;28;20056;-59
2022/04/14 08:04:09;;;;;;;62.35;37.53;;;;;;;14.95;68.58;100268.59;5094547;28;20480;-60
2022/04/14 08:06:35;;;;;;;59.63;37.08;;;;;;;14.93;69.02;100270.50;5094683;28;20044;-60
2022/04/14 08:09:04;;;;;;;61.53;36.50;;;;;;;14.93;69.56;100267.84;5094645;28;20098;-60
2022/04/14 08:11:31;;;;;;;61.88;38.72;;;;;;;14.95;70.00;100282.69;5094330;28;20055;-61
2022/04/14 08:13:57;;;;;;;61.28;37.92;;;;;;;14.98;70.10;100268.38;5094413;28;20492;-60
2022/04/14 08:16:24;;;;;;;58.28;37.22;;;;;;;15.03;70.14;100268.06;5094713;28;20052;-60
2022/04/14 08:18:51;;;;;;;59.28;36.72;;;;;;;15.09;69.98;100272.94;5094119;28;20458;-63
2022/04/14 08:21:19;;;;;;;63.60;36.85;;;;;;;15.14;70.16;100277.94;5094193;28;20056;-62
2022/04/14 08:23:45;;;;;;;56.72;36.28;;;;;;;15.20;69.99;100272.22;5092772;28;20488;-61
2022/04/14 08:26:12;;;;;;;60.83;36.08;;;;;;;15.27;70.10;100270.00;5094108;28;20052;-60
2022/04/14 08:28:44;;;;;;;62.70;37.90;;;;;;;15.33;70.15;100275.72;5094268;28;20093;-60
2022/04/14 08:31:11;;;;;;;56.70;34.63;;;;;;;15.40;69.92;100280.63;5094009;28;20048;-60
2022/04/14 08:33:38;;;;;;;53.95;33.65;;;;;;;15.48;69.94;100272.97;5092610;28;20644;-60
2022/04/14 08:36:11;;;;;;;58.35;36.53;;;;;;;15.58;69.84;100284.66;5092446;28;20647;-60
2022/04/14 08:38:46;;;;;;;54.55;35.03;;;;;;;15.70;70.88;100280.28;5092552;28;20142;-61
2022/04/14 08:41:14;;;;;;;57.60;36.55;;;;;;;15.86;70.33;100281.84;5093250;28;20113;-60
2022/04/14 08:44:01;;;;;;;56.22;35.90;;;;;;;15.97;70.13;100281.97;5093891;28;20132;-59
2022/04/14 08:46:29;;;;;;;54.33;34.28;;;;;;;16.16;70.20;100283.31;5092765;28;20067;-60
2022/04/14 08:48:57;;;;;;;56.30;34.50;;;;;;;16.31;69.87;100288.47;5092380;28;20480;-60
2022/04/14 08:51:27;;;;;;;54.42;35.65;;;;;;;16.42;69.01;100283.22;5093434;28;20103;-61
2022/04/14 08:53:54;;;;;;;53.22;34.67;;;;;;;16.54;68.45;100282.31;5092629;28;20052;-61
2022/04/14 08:56:23;;;;;;;51.08;33.53;;;;;;;16.62;68.10;100286.19;5093742;28;20420;-61
2022/04/14 08:58:55;;;;;;;46.92;31.20;;;;;;;16.67;67.68;100281.38;5092440;28;20495;-60
2022/04/14 09:01:26;;;;;;;46.30;31.58;;;;;;;16.72;67.07;100273.94;5093206;28;20101;-63
2022/04/14 09:03:58;;;;;;;52.15;33.42;;;;;;;16.81;67.47;100280.34;5092158;28;20048;-61
2022/04/14 09:06:28;;;;;;;47.88;32.45;;;;;;;16.92;68.38;100284.88;5093632;28;20105;-61
2022/04/14 09:08:59;;;;;;;47.80;28.83;;;;;;;17.03;68.42;100276.94;5092309;28;20051;-61
2022/04/14 09:11:30;;;;;;;52.58;32.00;;;;;;;17.16;68.20;100276.88;5091621;28;20515;-61
2022/04/14 09:13:59;;;;;;;42.55;28.35;;;;;;;17.29;68.15;100287.44;5093215;28;20579;-61
2022/04/14 09:16:26;;;;;;;41.88;26.85;;;;;;;17.41;67.66;100285.63;5093461;28;20048;-61
2022/04/14 09:18:54;;;;;;;43.90;28.63;;;;;;;17.54;67.03;100285.50;5093579;28;20066;-60
2022/04/14 09:21:20;;;;;;;37.83;27.42;;;;;;;17.64;66.39;100284.81;5091838;28;20514;-62
2022/04/14 09:23:54;;;;;;;42.45;28.77;;;;;;;17.72;65.56;100279.72;5092177;28;20131;-60
2022/04/14 09:26:24;;;;;;;41.53;29.23;;;;;;;17.79;65.64;100280.91;5092000;28;20055;-60
2022/04/14 09:29:10;;;;;;;40.58;27.60;;;;;;;17.80;65.58;100271.94;5093171;28;20083;-60
2022/04/14 09:31:51;;;;;;;43.45;27.55;;;;;;;17.86;65.41;100283.94;5093012;28;20590;-60
2022/04/14 09:34:45;;;;;;;35.70;24.73;;;;;;;17.90;64.49;100287.22;5093236;28;20442;-61
2022/04/14 09:37:12;;;;;;;38.40;25.83;;;;;;;17.99;65.08;100281.16;5092158;28;20060;-61
2022/04/14 09:40:05;;;;;;;36.55;25.45;;;;;;;18.03;65.30;100287.06;5093134;28;20076;-61
2022/04/14 09:42:33;;;;;;;37.83;25.73;;;;;;;18.17;65.02;100283.34;5091848;28;20060;-60
2022/04/14 09:45:23;;;;;;;36.10;25.35;;;;;;;18.21;63.35;100282.13;5091730;28;20048;-60
2022/04/14 09:48:07;;;;;;;37.15;26.10;;;;;;;18.32;63.91;100276.75;5092799;28;20044;-62
2022/04/14 09:50:39;;;;;;;37.22;25.23;;;;;;;18.36;63.13;100285.34;5092851;28;20381;-60
2022/04/14 09:53:07;;;;;;;29.65;22.48;;;;;;;18.39;63.17;100270.94;5091588;28;20103;-59
2022/04/14 09:55:49;;;;;;;33.03;22.80;;;;;;;18.44;63.55;100274.91;5092601;28;20060;-60
2022/04/14 09:58:18;;;;;;;35.78;24.65;;;;;;;18.53;64.40;100270.63;5092762;28;20044;-59
2022/04/14 10:00:48;;;;;;;34.22;23.75;;;;;;;18.65;65.00;100268.75;5092244;28;20443;-60
2022/04/14 10:03:25;;;;;;;32.03;23.63;;;;;;;18.78;62.65;100268.59;5092584;28;20373;-60
2022/04/14 10:06:05;;;;;;;33.05;22.38;;;;;;;18.94;63.15;100261.94;5092327;28;20052;-60
2022/04/14 10:09:02;;;;;;;30.45;21.42;;;;;;;19.07;62.84;100262.66;5092436;28;20118;-61
2022/04/14 10:11:33;;;;;;;32.65;22.05;;;;;;;19.26;63.59;100266.41;5083217;28;20055;-60
2022/04/14 10:14:13;;;;;;;30.98;21.77;;;;;;;19.36;61.54;100267.31;5092248;28;20492;-61
2022/04/14 10:16:40;;;;;;;27.45;20.45;;;;;;;19.52;62.62;100264.13;5092298;28;20044;-62
2022/04/14 10:19:09;;;;;;;34.58;22.65;;;;;;;19.63;62.21;100263.19;5090884;28;20058;-60
2022/04/14 10:21:39;;;;;;;27.88;21.45;;;;;;;19.74;62.10;100256.91;5090753;28;20071;-59
2022/04/14 10:24:06;;;;;;;29.10;19.98;;;;;;;19.84;61.51;100251.63;5089896;28;20044;-61
2022/04/14 10:26:35;;;;;;;26.50;20.55;;;;;;;19.91;60.59;100258.13;5092000;28;20117;-60
2022/04/14 10:29:04;;;;;;;29.15;20.02;;;;;;;20.02;61.93;100253.66;5091863;28;20065;-61
2022/04/14 10:31:32;;;;;;;29.30;21.92;;;;;;;20.13;61.74;100253.56;5090590;28;20048;-60
2022/04/14 10:34:04;;;;;;;42.90;20.75;;;;;;;20.28;61.03;100248.66;5090790;28;20044;-60
2022/04/14 10:36:39;;;;;;;26.30;19.60;;;;;;;20.40;58.45;100252.03;5092041;28;20059;-60
2022/04/14 10:39:10;;;;;;;24.98;18.90;;;;;;;20.53;57.80;100248.25;5091552;28;20040;-62
2022/04/14 10:41:44;;;;;;;25.17;18.17;;;;;;;20.65;58.87;100249.78;5091688;28;20044;-61
2022/04/14 10:44:13;;;;;;;25.70;19.75;;;;;;;20.79;60.01;100245.00;5091748;28;20052;-60
2022/04/14 10:46:41;;;;;;;30.35;20.33;;;;;;;20.93;59.65;100236.56;5092020;28;20056;-59
2022/04/14 10:49:13;;;;;;;25.63;19.50;;;;;;;21.10;58.57;100250.19;5091589;28;20048;-60
2022/04/14 10:51:41;;;;;;;28.10;19.67;;;;;;;21.29;59.21;100248.44;5090345;28;20040;-61
2022/04/14 10:54:10;;;;;;;23.15;18.98;;;;;;;21.44;58.45;100247.00;5090231;28;20083;-60
2022/04/14 10:56:37;;;;;;;24.35;19.13;;;;;;;21.60;57.67;100245.50;5090437;28;20052;-61
2022/04/14 10:59:05;;;;;;;25.77;18.67;;;;;;;21.73;57.36;100245.22;5091515;28;20044;-65
2022/04/14 11:01:46;;;;;;;27.40;17.95;;;;;;;21.85;56.59;100251.19;5091380;28;20048;-61
2022/04/14 11:04:41;;;;;;;19.63;16.15;;;;;;;22.07;56.53;100254.47;5091303;28;20156;-60
2022/04/14 11:07:15;;;;;;;23.77;17.05;;;;;;;22.38;55.62;100256.78;5091545;28;20048;-61
2022/04/14 11:09:45;;;;;;;18.88;15.75;;;;;;;22.62;56.31;100266.94;5091180;28;20058;-61
2022/04/14 11:12:19;;;;;;;19.33;15.02;;;;;;;22.72;53.20;100274.09;5090087;28;20052;-61
2022/04/14 11:14:54;;;;;;;20.08;15.45;;;;;;;22.75;53.18;100260.31;5090990;28;20116;-61
2022/04/14 11:17:40;;;;;;;19.90;15.70;;;;;;;22.72;53.74;100255.28;5091453;28;20055;-61
2022/04/14 11:20:16;;;;;;;17.70;14.13;;;;;;;22.83;53.00;100264.94;5089510;28;20100;-62